createdAt,value
2018-07-13T00:01:31.033Z,90.80
2018-07-13T00:03:59.220Z,91.20
2018-07-13T00:06:27.371Z,91.00
2018-07-13T00:08:55.541Z,90.80
2018-07-13T00:11:23.729Z,91.50
2018-07-13T00:14:16.565Z,91.50
2018-07-13T00:16:45.432Z,91.60
2018-07-13T00:19:14.173Z,92.40
2018-07-13T00:21:42.322Z,91.80
2018-07-13T00:24:10.496Z,91.60
2018-07-13T00:26:39.106Z,91.60
2018-07-13T00:29:07.660Z,91.30
2018-07-13T00:31:36.575Z,91.50
2018-07-13T00:34:04.898Z,91.80
2018-07-13T00:36:33.070Z,92.10
2018-07-13T00:39:01.240Z,92.60
2018-07-13T00:41:29.432Z,92.40
2018-07-13T00:43:57.603Z,91.80
2018-07-13T00:46:25.773Z,91.00
2018-07-13T00:48:53.934Z,90.90
2018-07-13T00:51:22.095Z,91.00
2018-07-13T00:53:50.276Z,91.30
2018-07-13T00:56:18.424Z,91.60
2018-07-13T00:58:46.602Z,91.60
2018-07-13T01:01:14.734Z,91.60
2018-07-13T01:03:42.893Z,91.70
2018-07-13T01:06:11.033Z,91.90
2018-07-13T01:08:39.174Z,91.80
2018-07-13T01:11:07.306Z,91.80
2018-07-13T01:13:35.460Z,92.10
2018-07-13T01:16:03.810Z,91.90
2018-07-13T01:18:31.970Z,91.90
2018-07-13T01:21:00.110Z,92.10
2018-07-13T01:23:28.270Z,91.60
2018-07-13T01:25:56.418Z,91.00
2018-07-13T01:28:24.559Z,91.20
2018-07-13T01:30:52.697Z,91.80
2018-07-13T01:33:20.864Z,91.80
2018-07-13T01:35:48.996Z,91.70
2018-07-13T01:38:17.140Z,91.10
2018-07-13T01:40:45.270Z,90.90
2018-07-13T01:43:13.414Z,91.40
2018-07-13T01:45:47.859Z,91.50
2018-07-13T01:48:16.033Z,91.30
2018-07-13T01:50:44.166Z,91.40
2018-07-13T01:53:12.325Z,91.30
2018-07-13T01:55:40.513Z,91.70
2018-07-13T01:58:08.616Z,91.60
2018-07-13T02:00:36.769Z,92.20
2018-07-13T02:03:04.894Z,92.50
2018-07-13T02:05:33.050Z,92.60
2018-07-13T02:08:01.198Z,92.80
2018-07-13T02:10:29.347Z,93.20
2018-07-13T02:12:57.485Z,92.80
2018-07-13T02:15:25.658Z,93.20
2018-07-13T02:17:53.833Z,93.20
2018-07-13T02:20:21.957Z,93.30
2018-07-13T02:22:50.106Z,93.40
2018-07-13T02:25:18.249Z,93.50
2018-07-13T02:27:46.399Z,93.70
2018-07-13T02:30:14.541Z,94.10
2018-07-13T02:32:42.695Z,94.70
2018-07-13T02:35:10.834Z,94.60
2018-07-13T02:37:38.963Z,94.30
2018-07-13T02:40:07.113Z,94.30
2018-07-13T02:42:35.286Z,94.30
2018-07-13T02:45:03.447Z,94.60
2018-07-13T02:47:31.582Z,94.80
2018-07-13T02:49:59.743Z,94.50
2018-07-13T02:52:27.947Z,94.30
2018-07-13T02:55:02.574Z,94.20
2018-07-13T02:57:30.762Z,93.90
2018-07-13T02:59:58.935Z,93.50
2018-07-13T03:02:27.114Z,93.20
2018-07-13T03:04:55.291Z,93.00
2018-07-13T03:07:23.461Z,92.80
2018-07-13T03:09:51.640Z,92.90
2018-07-13T03:12:26.122Z,92.90
2018-07-13T03:14:54.303Z,92.90
2018-07-13T03:17:22.466Z,92.90
2018-07-13T03:19:50.630Z,92.80
2018-07-13T03:22:18.905Z,93.10
2018-07-13T03:24:46.961Z,93.50
2018-07-13T03:27:15.113Z,93.10
2018-07-13T03:29:43.321Z,93.30
2018-07-13T03:32:11.467Z,93.90
2018-07-13T03:34:39.625Z,94.20
2018-07-13T03:37:07.764Z,94.30
2018-07-13T03:39:35.918Z,94.40
2018-07-13T03:42:04.123Z,94.20
2018-07-13T03:44:32.391Z,94.30
2018-07-13T03:47:00.738Z,94.50
2018-07-13T03:49:28.887Z,94.60
2018-07-13T03:51:57.065Z,94.80
2018-07-13T03:54:25.233Z,94.80
2018-07-13T03:56:53.407Z,95.00
2018-07-13T03:59:21.578Z,94.90
2018-07-13T04:01:49.754Z,94.80
2018-07-13T04:04:17.895Z,94.80
2018-07-13T04:06:46.067Z,95.40
2018-07-13T04:09:14.238Z,95.00
2018-07-13T04:11:42.432Z,95.40
2018-07-13T04:14:10.609Z,95.50
2018-07-13T04:16:38.769Z,95.30
2018-07-13T04:19:06.931Z,95.50
2018-07-13T04:21:35.104Z,95.50
2018-07-13T04:24:03.249Z,95.40
2018-07-13T04:26:31.544Z,95.20
2018-07-13T04:28:59.701Z,94.90
2018-07-13T04:31:34.560Z,94.70
2018-07-13T04:34:02.753Z,94.80
2018-07-13T04:36:30.932Z,94.60
2018-07-13T04:38:59.114Z,94.30
2018-07-13T04:41:27.291Z,94.40
2018-07-13T04:43:55.448Z,94.30
2018-07-13T04:46:23.630Z,94.50
2018-07-13T04:48:51.804Z,94.60
2018-07-13T04:51:19.995Z,94.60
2018-07-13T04:53:48.195Z,94.30
2018-07-13T04:56:16.377Z,94.00
2018-07-13T04:58:44.551Z,93.80
2018-07-13T05:01:12.743Z,93.50
2018-07-13T05:03:40.963Z,94.20
2018-07-13T05:06:09.258Z,93.30
2018-07-13T05:08:37.427Z,93.80
2018-07-13T05:11:05.638Z,93.60
2018-07-13T05:13:33.798Z,94.60
2018-07-13T05:16:02.004Z,95.10
2018-07-13T05:18:30.188Z,95.50
2018-07-13T05:20:58.475Z,95.70
2018-07-13T05:23:26.648Z,95.80
2018-07-13T05:25:56.462Z,95.50
2018-07-13T05:28:24.637Z,95.80
2018-07-13T05:30:52.892Z,96.00
2018-07-13T05:33:21.055Z,96.00
2018-07-13T05:35:49.224Z,96.40
2018-07-13T05:38:17.387Z,96.00
2018-07-13T05:40:45.543Z,95.90
2018-07-13T05:43:13.732Z,95.70
2018-07-13T05:45:41.919Z,95.90
2018-07-13T05:48:10.078Z,95.20
2018-07-13T05:50:38.234Z,95.40
2018-07-13T05:53:06.400Z,95.00
2018-07-13T05:55:34.552Z,94.40
2018-07-13T05:58:02.721Z,94.20
2018-07-13T06:00:30.851Z,94.40
2018-07-13T06:02:59.021Z,93.90
2018-07-13T06:05:27.200Z,93.50
2018-07-13T06:07:55.391Z,93.60
2018-07-13T06:10:23.553Z,93.20
2018-07-13T06:12:51.739Z,93.20
2018-07-13T06:15:19.879Z,93.00
2018-07-13T06:17:48.047Z,92.70
2018-07-13T06:20:16.198Z,92.90
2018-07-13T06:22:44.387Z,91.90
2018-07-13T06:25:12.552Z,91.90
2018-07-13T06:27:40.770Z,92.30
2018-07-13T06:30:08.927Z,92.20
2018-07-13T06:32:37.091Z,91.90
2018-07-13T06:35:05.363Z,91.80
2018-07-13T06:37:33.580Z,91.60
2018-07-13T06:40:01.719Z,91.30
2018-07-13T06:42:29.922Z,90.70
2018-07-13T06:44:58.099Z,91.00
2018-07-13T06:47:26.273Z,88.80
2018-07-13T06:49:54.433Z,88.70
2018-07-13T06:52:22.604Z,85.10
2018-07-13T06:54:50.756Z,79.20
2018-07-13T06:57:30.523Z,80.20
2018-07-13T06:59:58.674Z,77.00
2018-07-13T07:02:38.101Z,76.00
2018-07-13T07:06:16.225Z,76.00
2018-07-13T07:08:47.574Z,75.50
2018-07-13T07:11:16.340Z,76.70
2018-07-13T07:13:45.250Z,76.10
2018-07-13T07:16:13.442Z,73.30
2018-07-13T07:18:41.726Z,74.30
2018-07-13T07:21:10.091Z,74.10
2018-07-13T07:23:38.476Z,74.60
2018-07-13T07:26:06.996Z,73.50
2018-07-13T07:28:35.176Z,72.20
2018-07-13T07:31:03.537Z,72.60
2018-07-13T07:33:31.741Z,69.90
2018-07-13T07:35:59.900Z,70.90
2018-07-13T07:38:28.080Z,72.90
2018-07-13T07:40:56.247Z,72.80
2018-07-13T07:43:24.448Z,72.50
2018-07-13T07:45:52.619Z,72.30
2018-07-13T07:48:20.822Z,70.70
2018-07-13T07:50:49.002Z,70.90
2018-07-13T07:53:17.176Z,71.50
2018-07-13T07:55:45.330Z,71.10
2018-07-13T07:58:13.473Z,72.00
2018-07-13T08:00:41.631Z,69.50
2018-07-13T08:03:09.811Z,68.20
2018-07-13T08:05:37.988Z,67.90
2018-07-13T08:08:06.176Z,66.60
2018-07-13T08:10:34.348Z,63.70
2018-07-13T08:13:02.560Z,63.30
2018-07-13T08:15:30.722Z,61.80
2018-07-13T08:17:58.890Z,59.50
2018-07-13T08:20:35.491Z,57.50
2018-07-13T08:23:07.929Z,58.60
2018-07-13T08:25:36.513Z,58.10
2018-07-13T08:28:04.924Z,56.80
2018-07-13T08:30:42.542Z,55.30
2018-07-13T08:33:10.723Z,55.80
2018-07-13T08:35:38.888Z,54.30
2018-07-13T08:38:07.255Z,53.50
2018-07-13T08:40:35.435Z,52.60
2018-07-13T08:43:03.588Z,53.00
2018-07-13T08:45:31.826Z,53.10
2018-07-13T08:47:59.944Z,51.50
2018-07-13T08:50:28.449Z,50.90
2018-07-13T08:52:57.002Z,50.30
2018-07-13T08:55:25.170Z,50.60
2018-07-13T08:57:53.315Z,51.30
2018-07-13T09:00:21.509Z,51.50
2018-07-13T09:02:49.657Z,50.00
2018-07-13T09:05:17.820Z,48.50
2018-07-13T09:07:45.987Z,50.60
2018-07-13T09:10:14.302Z,49.30
2018-07-13T09:12:42.656Z,48.50
2018-07-13T09:15:12.212Z,48.90
2018-07-13T09:17:40.412Z,48.00
2018-07-13T09:20:10.186Z,48.60
2018-07-13T09:22:38.331Z,49.10
2018-07-13T09:25:07.193Z,48.60
2018-07-13T09:27:35.354Z,48.00
2018-07-13T09:30:03.577Z,47.30
2018-07-13T09:32:31.732Z,49.00
2018-07-13T09:34:59.895Z,48.90
2018-07-13T09:37:28.075Z,48.30
2018-07-13T09:39:56.230Z,48.60
2018-07-13T09:42:24.376Z,48.80
2018-07-13T09:44:52.566Z,49.30
2018-07-13T09:47:20.714Z,48.00
2018-07-13T09:49:48.880Z,48.60
2018-07-13T09:52:17.059Z,46.40
2018-07-13T09:54:45.226Z,46.10
2018-07-13T09:57:13.390Z,46.80
2018-07-13T09:59:41.531Z,47.40
2018-07-13T10:02:09.690Z,47.90
2018-07-13T10:04:37.871Z,46.40
2018-07-13T10:07:06.438Z,45.70
2018-07-13T10:09:34.584Z,46.40
2018-07-13T10:12:02.766Z,46.50
2018-07-13T10:14:30.931Z,45.20
2018-07-13T10:16:59.081Z,46.50
2018-07-13T10:19:27.270Z,44.00
2018-07-13T10:21:55.449Z,43.00
2018-07-13T10:24:23.618Z,43.50
2018-07-13T10:26:52.250Z,41.70
2018-07-13T10:29:22.307Z,40.80
2018-07-13T10:31:50.704Z,42.30
2018-07-13T10:34:19.523Z,42.10
2018-07-13T10:36:57.846Z,41.50
2018-07-13T10:39:26.031Z,42.10
2018-07-13T10:41:54.325Z,41.80
2018-07-13T10:44:22.686Z,44.00
2018-07-13T10:46:51.035Z,43.00
2018-07-13T10:49:19.471Z,44.50
2018-07-13T10:51:47.831Z,42.50
2018-07-13T10:54:16.410Z,43.00
2018-07-13T10:56:44.614Z,41.30
2018-07-13T10:59:13.049Z,40.30
2018-07-13T11:01:41.676Z,40.60
2018-07-13T11:04:11.070Z,40.80
2018-07-13T11:06:39.266Z,40.90
2018-07-13T11:09:07.863Z,42.60
2018-07-13T11:11:36.255Z,40.90
2018-07-13T11:14:04.535Z,40.70
2018-07-13T11:16:32.747Z,39.50
2018-07-13T11:19:00.919Z,40.20
2018-07-13T11:21:29.217Z,40.60
2018-07-13T11:23:57.430Z,40.90
2018-07-13T11:26:25.715Z,41.30
2018-07-13T11:28:54.023Z,39.80
2018-07-13T11:31:22.246Z,40.60
2018-07-13T11:33:50.419Z,38.20
2018-07-13T11:36:18.611Z,40.10
2018-07-13T11:38:46.808Z,38.70
2018-07-13T11:41:14.984Z,40.40
2018-07-13T11:43:43.156Z,42.70
2018-07-13T11:46:11.321Z,41.40
2018-07-13T11:48:39.495Z,41.30
2018-07-13T11:51:07.675Z,41.50
2018-07-13T11:53:35.863Z,40.50
2018-07-13T11:56:04.054Z,39.50
2018-07-13T11:58:32.267Z,40.30
2018-07-13T12:01:00.442Z,39.80
2018-07-13T12:03:28.649Z,40.70
2018-07-13T12:05:56.823Z,41.40
2018-07-13T12:08:25.009Z,40.70
2018-07-13T12:10:53.257Z,41.10
2018-07-13T12:13:21.477Z,40.60
2018-07-13T12:15:49.727Z,40.80
2018-07-13T12:18:17.987Z,42.00
2018-07-13T12:20:46.188Z,42.30
2018-07-13T12:23:14.425Z,40.40
2018-07-13T12:25:42.628Z,40.30
2018-07-13T12:28:10.830Z,40.20
2018-07-13T12:30:39.029Z,39.50
2018-07-13T12:33:07.221Z,39.90
2018-07-13T12:35:35.402Z,38.80
2018-07-13T12:38:03.587Z,35.00
2018-07-13T12:40:31.780Z,36.30
2018-07-13T12:42:59.978Z,37.40
2018-07-13T12:45:28.134Z,35.50
2018-07-13T12:47:56.343Z,34.00
2018-07-13T12:50:24.804Z,35.40
2018-07-13T12:52:52.997Z,33.80
2018-07-13T12:55:21.171Z,35.10
2018-07-13T12:57:49.357Z,37.00
2018-07-13T13:00:17.526Z,37.20
2018-07-13T13:02:45.743Z,38.90
2018-07-13T13:05:13.894Z,38.60
2018-07-13T13:07:42.075Z,38.10
2018-07-13T13:10:10.267Z,38.70
2018-07-13T13:12:38.705Z,39.30
2018-07-13T13:15:07.280Z,41.30
2018-07-13T13:17:35.496Z,40.50
2018-07-13T13:20:03.766Z,41.00
2018-07-13T13:22:31.908Z,40.70
2018-07-13T13:25:00.087Z,40.50
2018-07-13T13:27:28.341Z,40.80
2018-07-13T13:29:56.644Z,40.00
2018-07-13T13:32:24.970Z,39.50
2018-07-13T13:34:53.199Z,39.80
2018-07-13T13:37:21.360Z,40.70
2018-07-13T13:39:49.528Z,41.50
2018-07-13T13:42:17.679Z,40.80
2018-07-13T13:44:46.568Z,40.80
2018-07-13T13:47:14.836Z,40.50
2018-07-13T13:49:43.158Z,39.90
2018-07-13T13:52:11.280Z,39.80
2018-07-13T13:54:39.444Z,40.20
2018-07-13T13:57:07.615Z,40.50
2018-07-13T13:59:36.053Z,40.20
2018-07-13T14:02:04.308Z,39.30
2018-07-13T14:04:38.997Z,39.00
2018-07-13T14:07:07.196Z,39.60
2018-07-13T14:09:35.374Z,38.60
2018-07-13T14:12:03.620Z,39.10
2018-07-13T14:14:31.762Z,40.20
2018-07-13T14:16:59.913Z,40.10
2018-07-13T14:19:28.084Z,39.30
2018-07-13T14:21:56.247Z,40.20
2018-07-13T14:24:24.465Z,38.20
2018-07-13T14:26:52.617Z,39.50
2018-07-13T14:29:20.786Z,40.70
2018-07-13T14:31:48.966Z,39.40
2018-07-13T14:34:17.154Z,40.40
2018-07-13T14:36:45.364Z,39.40
2018-07-13T14:39:13.519Z,38.00
2018-07-13T14:41:41.680Z,37.40
2018-07-13T14:44:09.855Z,38.80
2018-07-13T14:46:38.029Z,38.50
2018-07-13T14:49:06.209Z,38.30
2018-07-13T14:51:34.476Z,38.80
2018-07-13T14:54:02.835Z,37.70
2018-07-13T14:56:31.006Z,38.60
2018-07-13T14:58:59.177Z,39.60
2018-07-13T15:01:27.351Z,39.30
2018-07-13T15:03:55.518Z,37.60
2018-07-13T15:06:23.821Z,37.20
2018-07-13T15:08:51.852Z,36.50
2018-07-13T15:11:20.027Z,36.30
2018-07-13T15:13:48.383Z,37.70
2018-07-13T15:16:16.553Z,38.30
2018-07-13T15:18:44.715Z,38.30
2018-07-13T15:21:12.900Z,37.80
2018-07-13T15:23:41.057Z,37.50
2018-07-13T15:26:09.215Z,37.30
2018-07-13T15:28:37.367Z,38.00
2018-07-13T15:31:05.544Z,37.90
2018-07-13T15:33:33.714Z,37.80
2018-07-13T15:36:01.929Z,37.50
2018-07-13T15:38:30.111Z,35.80
2018-07-13T15:40:58.297Z,35.30
2018-07-13T15:43:26.552Z,35.70
2018-07-13T15:45:54.655Z,36.60
2018-07-13T15:48:22.852Z,36.40
2018-07-13T15:50:51.032Z,36.90
2018-07-13T15:53:19.188Z,36.80
2018-07-13T15:55:52.868Z,36.20
2018-07-13T15:58:21.010Z,36.50
2018-07-13T16:00:49.211Z,37.00
2018-07-13T16:03:17.374Z,37.70
2018-07-13T16:05:45.597Z,37.40
2018-07-13T16:08:13.758Z,37.30
2018-07-13T16:10:41.953Z,36.20
2018-07-13T16:13:10.170Z,37.10
2018-07-13T16:15:38.350Z,35.40
2018-07-13T16:18:06.640Z,36.00
2018-07-13T16:20:34.821Z,36.60
2018-07-13T16:23:03.085Z,36.30
2018-07-13T16:25:31.259Z,36.60
2018-07-13T16:27:59.454Z,35.80
2018-07-13T16:30:27.674Z,36.20
2018-07-13T16:32:55.878Z,36.60
2018-07-13T16:35:24.132Z,36.90
2018-07-13T16:37:52.328Z,37.70
2018-07-13T16:40:20.548Z,37.80
2018-07-13T16:42:48.894Z,37.90
2018-07-13T16:45:17.066Z,38.20
2018-07-13T16:47:45.473Z,38.60
2018-07-13T16:50:13.631Z,39.40
2018-07-13T16:52:41.859Z,39.60
2018-07-13T16:55:10.053Z,39.70
2018-07-13T16:57:38.350Z,39.50
2018-07-13T17:00:07.271Z,39.20
2018-07-13T17:02:35.523Z,38.60
2018-07-13T17:05:03.718Z,38.40
2018-07-13T17:07:31.925Z,38.70
2018-07-13T17:10:00.092Z,39.00
2018-07-13T17:12:28.329Z,39.20
2018-07-13T17:14:56.511Z,39.40
2018-07-13T17:17:25.514Z,39.70
2018-07-13T17:19:55.093Z,41.30
2018-07-13T17:22:23.611Z,41.30
2018-07-13T17:24:51.803Z,41.40
2018-07-13T17:27:21.279Z,41.70
2018-07-13T17:29:49.536Z,41.80
2018-07-13T17:32:18.012Z,41.80
2018-07-13T17:34:47.789Z,42.10
2018-07-13T17:37:16.023Z,41.90
2018-07-13T17:39:44.584Z,41.60
2018-07-13T17:42:13.063Z,41.90
2018-07-13T17:44:41.335Z,42.10
2018-07-13T17:47:09.623Z,42.30
2018-07-13T17:49:37.788Z,42.10
2018-07-13T17:52:06.001Z,42.60
2018-07-13T17:54:34.191Z,42.40
2018-07-13T17:57:02.386Z,42.10
2018-07-13T17:59:30.600Z,42.50
2018-07-13T18:01:58.809Z,42.10
2018-07-13T18:04:26.995Z,43.40
2018-07-13T18:06:55.211Z,42.50
2018-07-13T18:09:23.407Z,42.40
2018-07-13T18:11:51.798Z,43.00
2018-07-13T18:14:20.003Z,42.80
2018-07-13T18:16:48.182Z,43.30
2018-07-13T18:19:16.367Z,43.70
2018-07-13T18:21:44.542Z,44.20
2018-07-13T18:24:12.766Z,44.70
2018-07-13T18:26:41.638Z,44.40
2018-07-13T18:29:09.870Z,44.60
2018-07-13T18:31:38.147Z,44.70
2018-07-13T18:34:06.319Z,44.70
2018-07-13T18:36:34.484Z,44.90
2018-07-13T18:39:02.925Z,44.90
2018-07-13T18:41:31.097Z,44.90
2018-07-13T18:43:59.269Z,45.10
2018-07-13T18:46:27.447Z,45.40
2018-07-13T18:48:55.620Z,45.70
2018-07-13T18:51:23.798Z,46.20
2018-07-13T18:53:52.071Z,46.50
2018-07-13T18:56:20.210Z,47.30
2018-07-13T18:58:48.420Z,47.50
2018-07-13T19:01:16.572Z,48.30
2018-07-13T19:03:44.783Z,48.90
2018-07-13T19:06:12.999Z,48.60
2018-07-13T19:08:41.222Z,49.90
2018-07-13T19:11:09.396Z,52.70
2018-07-13T19:13:37.607Z,54.40
2018-07-13T19:16:05.787Z,55.40
2018-07-13T19:18:33.982Z,56.50
2018-07-13T19:21:02.138Z,55.80
2018-07-13T19:23:30.303Z,52.70
2018-07-13T19:25:58.501Z,52.50
2018-07-13T19:28:26.663Z,54.30
2018-07-13T19:30:54.849Z,55.60
2018-07-13T19:33:23.011Z,53.80
2018-07-13T19:35:51.165Z,54.50
2018-07-13T19:38:19.333Z,54.50
2018-07-13T19:40:47.506Z,54.50
2018-07-13T19:43:15.683Z,54.60
2018-07-13T19:45:43.856Z,55.10
2018-07-13T19:48:12.032Z,55.30
2018-07-13T19:50:40.203Z,56.10
2018-07-13T19:53:08.386Z,55.80
2018-07-13T19:55:37.940Z,56.50
2018-07-13T19:58:06.110Z,56.20
2018-07-13T20:00:34.378Z,55.60
2018-07-13T20:03:03.421Z,55.70
2018-07-13T20:05:31.587Z,55.90
2018-07-13T20:07:59.753Z,55.60
2018-07-13T20:10:27.939Z,56.60
2018-07-13T20:12:56.128Z,56.20
2018-07-13T20:15:24.333Z,56.90
2018-07-13T20:17:52.508Z,57.50
2018-07-13T20:20:20.790Z,58.10
2018-07-13T20:22:48.963Z,56.50
2018-07-13T20:25:17.181Z,57.30
2018-07-13T20:27:45.354Z,57.40
2018-07-13T20:30:13.534Z,57.30
2018-07-13T20:32:42.527Z,57.20
2018-07-13T20:35:10.707Z,57.90
2018-07-13T20:37:38.838Z,58.70
2018-07-13T20:40:07.072Z,58.80
2018-07-13T20:42:35.223Z,58.60
2018-07-13T20:45:03.855Z,58.70
2018-07-13T20:47:32.009Z,58.10
2018-07-13T20:50:00.196Z,58.80
2018-07-13T20:52:28.361Z,58.20
2018-07-13T20:54:56.518Z,57.50
2018-07-13T20:57:24.677Z,57.50
2018-07-13T20:59:52.817Z,57.60
2018-07-13T21:02:27.444Z,58.50
2018-07-13T21:04:55.587Z,58.20
2018-07-13T21:07:23.739Z,58.50
2018-07-13T21:09:51.888Z,59.10
2018-07-13T21:12:20.052Z,58.80
2018-07-13T21:14:48.202Z,61.90
2018-07-13T21:17:16.366Z,62.00
2018-07-13T21:19:44.525Z,62.10
2018-07-13T21:22:12.691Z,61.70
2018-07-13T21:24:40.828Z,64.70
2018-07-13T21:27:09.002Z,65.00
2018-07-13T21:29:37.180Z,66.30
2018-07-13T21:32:05.395Z,63.80
2018-07-13T21:34:33.551Z,63.20
2018-07-13T21:37:01.729Z,64.80
2018-07-13T21:39:29.854Z,65.30
2018-07-13T21:41:58.023Z,65.60
2018-07-13T21:44:26.174Z,66.30
2018-07-13T21:46:54.338Z,67.00
2018-07-13T21:49:22.518Z,69.00
2018-07-13T21:51:50.838Z,70.50
2018-07-13T21:54:19.133Z,70.10
2018-07-13T21:56:47.322Z,71.40
2018-07-13T21:59:15.523Z,70.90
2018-07-13T22:01:44.776Z,71.30
2018-07-13T22:04:12.901Z,72.90
2018-07-13T22:06:41.411Z,72.40
2018-07-13T22:09:09.561Z,74.00
2018-07-13T22:11:37.712Z,75.40
2018-07-13T22:14:05.987Z,76.40
2018-07-13T22:16:34.116Z,75.90
2018-07-13T22:19:02.266Z,74.90
2018-07-13T22:21:30.412Z,76.10
2018-07-13T22:23:58.685Z,75.40
2018-07-13T22:26:26.774Z,75.70
2018-07-13T22:28:54.863Z,76.30
2018-07-13T22:31:25.451Z,78.50
2018-07-13T22:33:57.792Z,76.80
2018-07-13T22:36:25.934Z,78.20
2018-07-13T22:38:54.146Z,76.80
2018-07-13T22:41:22.383Z,76.90
2018-07-13T22:43:50.687Z,77.30
2018-07-13T22:46:18.968Z,76.50
2018-07-13T22:48:47.382Z,76.60
2018-07-13T22:51:15.561Z,75.30
2018-07-13T22:53:43.719Z,74.20
2018-07-13T22:56:11.878Z,74.20
2018-07-13T22:58:42.138Z,74.20
2018-07-13T23:01:10.309Z,77.00
2018-07-13T23:03:38.465Z,79.20
2018-07-13T23:06:09.030Z,78.50
2018-07-13T23:08:37.200Z,80.40
2018-07-13T23:11:05.363Z,80.80
2018-07-13T23:13:33.536Z,81.10
2018-07-13T23:16:02.287Z,81.50
2018-07-13T23:18:30.483Z,80.60
2018-07-13T23:20:58.623Z,81.30
2018-07-13T23:23:27.125Z,81.00
2018-07-13T23:25:55.285Z,82.00
2018-07-13T23:28:25.050Z,80.70
2018-07-13T23:30:53.810Z,81.90
2018-07-13T23:33:22.341Z,82.00
2018-07-13T23:35:50.508Z,81.70
2018-07-13T23:38:18.684Z,80.00
2018-07-13T23:40:46.838Z,81.30
2018-07-13T23:43:15.021Z,82.00
2018-07-13T23:45:43.308Z,82.20
2018-07-13T23:48:11.747Z,82.10
2018-07-13T23:50:40.010Z,82.60
2018-07-13T23:53:08.551Z,81.40
2018-07-13T23:55:37.255Z,81.30
2018-07-13T23:58:05.482Z,81.20
